Time;durP1;ratioP1;P1;durP2;ratioP2;P2;SDS_P1;SDS_P2;PMS_P1;PMS_P2;Temp;Humidity;BMP_temperature;BMP_pressure;BME280_temperature;BME280_humidity;BME280_pressure;Samples;Min_cycle;Max_cycle;Signal;HPM_P1;HPM_P2
2023/10/08 00:03:33;;;;;;;36.53;17.30;;;18.60;99.90;;;;;;4916088;29;20521;-87
2023/10/08 00:06:07;;;;;;;37.45;19.02;;;18.60;99.90;;;;;;4901367;29;20032;-86
2023/10/08 00:08:33;;;;;;;;;;;18.60;99.90;;;;;;4917224;29;20032;-87
2023/10/08 00:11:06;;;;;;;37.05;19.27;;;18.60;99.90;;;;;;4932362;29;20030;-86
2023/10/08 00:13:39;;;;;;;35.35;18.85;;;18.60;99.90;;;;;;4917008;29;20473;-86
2023/10/08 00:16:15;;;;;;;38.97;19.00;;;18.50;99.90;;;;;;4903075;29;20477;-86
2023/10/08 00:18:48;;;;;;;34.47;18.77;;;18.50;99.90;;;;;;4901675;29;20040;-87
2023/10/08 00:21:16;;;;;;;34.78;17.75;;;18.40;99.90;;;;;;4900536;29;20489;-86
2023/10/08 00:23:50;;;;;;;38.85;18.63;;;18.30;99.90;;;;;;4916332;29;20095;-88
2023/10/08 00:26:27;;;;;;;32.53;18.45;;;18.30;99.90;;;;;;4901374;29;20025;-87
2023/10/08 00:28:59;;;;;;;35.88;18.27;;;18.30;99.90;;;;;;4916573;29;20033;-87
2023/10/08 00:31:32;;;;;;;35.08;19.75;;;18.20;99.90;;;;;;4916371;29;20036;-86
2023/10/08 00:33:58;;;;;;;40.25;19.15;;;18.20;99.90;;;;;;4916047;29;20048;-86
2023/10/08 00:36:25;;;;;;;32.08;18.52;;;18.20;99.90;;;;;;4913544;29;20032;-87
2023/10/08 00:38:54;;;;;;;40.60;20.40;;;18.10;99.90;;;;;;4900616;29;20028;-87
2023/10/08 00:41:28;;;;;;;42.03;20.10;;;18.10;99.90;;;;;;4900436;29;20040;-87
2023/10/08 00:43:59;;;;;;;41.33;21.77;;;18.10;99.90;;;;;;4932697;29;20050;-87
2023/10/08 00:46:32;;;;;;;49.17;21.70;;;18.10;99.90;;;;;;4900344;29;20442;-87
2023/10/08 00:49:48;;;;;;;41.85;20.55;;;18.10;99.90;;;;;;4917395;29;20032;-88
2023/10/08 00:52:48;;;;;;;46.22;22.38;;;18.10;99.90;;;;;;4917376;29;20032;-85
2023/10/08 00:55:09;;;;;;;41.17;20.40;;;18.10;99.90;;;;;;4916711;29;20139;-87
2023/10/08 00:57:36;;;;;;;40.65;20.48;;;18.00;99.90;;;;;;4916112;29;20403;-86
2023/10/08 01:00:06;;;;;;;41.13;20.40;;;18.10;99.90;;;;;;4901239;29;20028;-87
2023/10/08 01:02:45;;;;;;;38.90;21.10;;;18.00;99.90;;;;;;4902620;29;20036;-87
2023/10/08 01:05:14;;;;;;;40.20;20.73;;;18.00;99.90;;;;;;4921514;29;20035;-86
2023/10/08 01:07:48;;;;;;;37.33;20.27;;;18.00;99.90;;;;;;4907208;29;20059;-87
2023/10/08 01:10:19;;;;;;;47.37;22.13;;;17.90;99.90;;;;;;4909998;29;20060;-87
2023/10/08 01:13:12;;;;;;;38.13;19.65;;;17.90;99.90;;;;;;4919215;29;20817;-86
2023/10/08 01:15:41;;;;;;;36.28;20.27;;;17.90;99.90;;;;;;4919787;29;20031;-86
2023/10/08 01:18:14;;;;;;;43.10;21.33;;;17.90;99.90;;;;;;4905890;29;20068;-85
2023/10/08 01:20:53;;;;;;;38.95;20.48;;;17.90;99.90;;;;;;4922080;29;20032;-86
2023/10/08 01:23:27;;;;;;;42.20;21.92;;;17.90;99.90;;;;;;4937634;29;20055;-87
2023/10/08 01:26:30;;;;;;;45.72;21.50;;;17.90;99.90;;;;;;4920177;29;20122;-86
2023/10/08 01:28:46;;;;;;;53.05;22.80;;;17.90;99.90;;;;;;4900093;29;20044;-87
2023/10/08 01:31:15;;;;;;;58.00;22.08;;;17.90;99.90;;;;;;4900043;29;20073;-87
2023/10/08 01:33:50;;;;;;;42.20;22.15;;;17.90;99.90;;;;;;4899986;29;20124;-87
2023/10/08 01:36:20;;;;;;;47.47;23.60;;;17.90;99.90;;;;;;4900266;29;20139;-87
2023/10/08 01:38:48;;;;;;;41.72;21.42;;;17.90;99.90;;;;;;4899844;29;20113;-87
2023/10/08 01:41:30;;;;;;;50.65;23.70;;;18.00;99.90;;;;;;4899956;29;20044;-85
2023/10/08 01:43:58;;;;;;;43.67;21.77;;;17.90;99.90;;;;;;4899903;29;20044;-88
2023/10/08 01:46:25;;;;;;;46.00;22.23;;;17.90;99.90;;;;;;4900723;29;20032;-86
2023/10/08 01:48:56;;;;;;;48.83;22.35;;;17.90;99.90;;;;;;4899718;29;20040;-88
2023/10/08 01:51:28;;;;;;;48.22;22.15;;;17.90;99.90;;;;;;4899905;29;20025;-86
2023/10/08 01:53:57;;;;;;;48.03;22.67;;;17.90;99.90;;;;;;4899821;29;20091;-87
2023/10/08 01:56:24;;;;;;;45.88;22.45;;;17.90;99.90;;;;;;4902877;29;20024;-87
2023/10/08 01:58:50;;;;;;;52.50;23.83;;;17.80;99.90;;;;;;4934535;29;20036;-86
2023/10/08 02:01:21;;;;;;;50.10;22.95;;;17.80;99.90;;;;;;4934209;29;20532;-87
2023/10/08 02:03:48;;;;;;;49.42;23.30;;;17.80;99.90;;;;;;4918174;29;20127;-87
2023/10/08 02:06:14;;;;;;;49.70;24.40;;;17.80;99.90;;;;;;4934166;29;20024;-87
2023/10/08 02:08:41;;;;;;;52.78;21.58;;;17.70;99.90;;;;;;4934001;29;20032;-87
2023/10/08 02:11:08;;;;;;;45.80;22.48;;;17.70;99.90;;;;;;4934096;29;20114;-87
2023/10/08 02:13:35;;;;;;;51.15;23.60;;;17.70;99.90;;;;;;4934556;29;20028;-88
2023/10/08 02:16:01;;;;;;;48.53;22.65;;;17.70;99.90;;;;;;4933140;29;20028;-86
2023/10/08 02:18:29;;;;;;;53.97;22.60;;;17.70;99.90;;;;;;4933679;29;20044;-87
2023/10/08 02:20:55;;;;;;;50.95;22.90;;;17.70;99.90;;;;;;4918413;29;20024;-88
2023/10/08 02:23:22;;;;;;;48.50;21.95;;;17.70;99.90;;;;;;4933825;29;20044;-87
2023/10/08 02:25:48;;;;;;;47.05;21.55;;;17.70;99.90;;;;;;4933849;29;20031;-87
2023/10/08 02:28:20;;;;;;;49.60;22.42;;;17.80;99.90;;;;;;4918096;29;20062;-87
2023/10/08 02:30:47;;;;;;;44.53;21.23;;;17.80;99.90;;;;;;4933648;29;20036;-86
2023/10/08 02:33:16;;;;;;;52.63;22.50;;;17.80;99.90;;;;;;4917797;29;20028;-85
2023/10/08 02:35:45;;;;;;;53.22;22.58;;;17.70;99.90;;;;;;4933446;29;20044;-86
2023/10/08 02:38:16;;;;;;;51.72;23.52;;;17.70;99.90;;;;;;4898914;29;20131;-86
2023/10/08 02:40:49;;;;;;;46.22;21.33;;;17.60;99.90;;;;;;4933287;29;20040;-86
2023/10/08 02:43:17;;;;;;;58.55;24.05;;;17.60;99.90;;;;;;4921197;29;20066;-86
2023/10/08 02:45:49;;;;;;;52.28;22.50;;;17.50;99.90;;;;;;4920007;29;20036;-86
2023/10/08 02:48:16;;;;;;;51.33;22.02;;;17.50;99.90;;;;;;4935810;29;20032;-85
2023/10/08 02:50:46;;;;;;;58.75;25.20;;;17.50;99.90;;;;;;4920187;29;20112;-86
2023/10/08 02:53:17;;;;;;;52.22;22.73;;;17.40;99.90;;;;;;4919828;29;20044;-86
2023/10/08 02:55:44;;;;;;;54.83;23.35;;;17.40;99.90;;;;;;4936476;29;20529;-86
2023/10/08 02:58:14;;;;;;;54.85;23.30;;;17.40;99.90;;;;;;4916685;29;20489;-86
2023/10/08 03:00:49;;;;;;;53.30;22.55;;;17.40;99.90;;;;;;4932520;29;20032;-86
2023/10/08 03:03:18;;;;;;;54.40;22.35;;;17.30;99.90;;;;;;4924903;29;20040;-86
2023/10/08 03:05:51;;;;;;;50.28;22.90;;;17.30;99.90;;;;;;4935404;29;20044;-85
2023/10/08 03:08:20;;;;;;;51.70;21.88;;;17.30;99.90;;;;;;4919771;29;20605;-87
2023/10/08 03:10:49;;;;;;;44.95;21.75;;;17.30;99.90;;;;;;4935336;29;20035;-85
2023/10/08 03:13:17;;;;;;;49.65;22.55;;;17.30;99.90;;;;;;4935400;29;20038;-86
2023/10/08 03:18:36;;;;;;;;;;;17.30;99.90;;;;;;4917418;29;20036;-86
2023/10/08 03:24:23;;;;;;;46.53;22.00;;;17.40;99.90;;;;;;4916178;29;20521;-86
2023/10/08 03:26:55;;;;;;;44.45;21.27;;;17.40;99.90;;;;;;4918852;29;20040;-85
2023/10/08 03:29:22;;;;;;;41.25;20.88;;;17.50;99.90;;;;;;4916800;29;20024;-85
2023/10/08 03:34:19;;;;;;;37.22;20.92;;;17.50;99.90;;;;;;4916698;29;20418;-86
2023/10/08 03:36:47;;;;;;;38.20;20.42;;;17.60;99.90;;;;;;4916660;29;20091;-86
2023/10/08 03:39:18;;;;;;;43.30;23.52;;;17.60;99.90;;;;;;4916762;29;20601;-86
2023/10/08 03:41:59;;;;;;;45.75;22.63;;;17.70;99.90;;;;;;4917354;29;20036;-84
2023/10/08 03:44:25;;;;;;;40.45;21.30;;;17.70;99.90;;;;;;4916838;29;20043;-85
2023/10/08 03:46:52;;;;;;;34.45;20.00;;;17.70;99.90;;;;;;4916679;29;20043;-85
2023/10/08 03:51:51;;;;;;;37.75;18.67;;;17.90;99.90;;;;;;4916726;29;20024;-86
2023/10/08 03:54:20;;;;;;;37.42;18.10;;;17.90;99.90;;;;;;4916724;29;20040;-87
2023/10/08 03:56:48;;;;;;;30.85;17.38;;;17.90;99.90;;;;;;4916569;29;20020;-86
2023/10/08 03:59:40;;;;;;;28.90;16.60;;;18.00;99.90;;;;;;4916589;29;20040;-86
2023/10/08 04:02:24;;;;;;;29.55;15.23;;;18.00;99.90;;;;;;4916391;29;20056;-86
2023/10/08 04:04:51;;;;;;;26.05;14.95;;;18.00;99.90;;;;;;4916532;29;20711;-87
2023/10/08 04:12:43;;;;;;;23.83;14.07;;;18.10;99.90;;;;;;4916580;29;20032;-86
2023/10/08 04:15:12;;;;;;;25.40;13.35;;;18.10;99.90;;;;;;4916615;29;20478;-86
2023/10/08 04:17:45;;;;;;;24.60;12.77;;;18.10;99.90;;;;;;4916347;29;20037;-86
2023/10/08 04:22:59;;;;;;;21.63;12.45;;;18.20;99.90;;;;;;4916483;29;20044;-86
2023/10/08 04:25:30;;;;;;;20.30;13.00;;;18.20;99.90;;;;;;4917214;29;20040;-85
2023/10/08 04:28:00;;;;;;;21.27;12.52;;;18.20;99.90;;;;;;4916491;29;20029;-85
2023/10/08 04:30:36;;;;;;;23.50;12.88;;;18.20;99.90;;;;;;4916322;29;20029;-86
2023/10/08 04:33:08;;;;;;;20.95;12.07;;;18.20;99.90;;;;;;4916510;29;20490;-87
2023/10/08 04:38:28;;;;;;;18.98;12.48;;;18.20;99.90;;;;;;4916867;29;20036;-86
2023/10/08 04:41:01;;;;;;;20.23;12.18;;;18.20;99.90;;;;;;4904318;29;20119;-86
2023/10/08 04:43:28;;;;;;;24.52;12.95;;;18.20;99.90;;;;;;4904174;29;20040;-86
2023/10/08 04:45:57;;;;;;;24.00;12.32;;;18.20;99.90;;;;;;4919951;29;20057;-86
2023/10/08 04:48:26;;;;;;;23.23;12.48;;;18.20;99.90;;;;;;4919823;29;20091;-86
2023/10/08 04:50:58;;;;;;;25.23;12.45;;;18.20;99.90;;;;;;4919830;29;20504;-86
2023/10/08 04:53:44;;;;;;;23.63;11.75;;;18.20;99.90;;;;;;4903369;29;20508;-86
2023/10/08 04:56:18;;;;;;;24.27;12.02;;;18.20;99.90;;;;;;4919768;29;20513;-86
2023/10/08 04:58:46;;;;;;;22.95;12.30;;;18.20;99.90;;;;;;4935455;29;20040;-86
2023/10/08 05:01:18;;;;;;;22.35;11.68;;;18.30;99.90;;;;;;4919685;29;20115;-86
2023/10/08 05:09:16;;;;;;;25.70;13.48;;;18.40;99.90;;;;;;4900596;29;20048;-81
2023/10/08 05:11:56;;;;;;;22.33;12.85;;;18.40;99.90;;;;;;4899653;29;20032;-81
2023/10/08 05:17:10;;;;;;;24.48;14.35;;;18.50;99.90;;;;;;4899499;29;20055;-82
2023/10/08 05:22:40;;;;;;;30.60;15.63;;;18.60;99.90;;;;;;4899885;29;20537;-86
2023/10/08 05:25:57;;;;;;;28.38;16.45;;;18.60;99.90;;;;;;4900361;29;20716;-78
2023/10/08 05:30:38;;;;;;;29.02;17.13;;;18.80;99.90;;;;;;4935724;29;20051;-85
2023/10/08 05:33:25;;;;;;;28.42;15.90;;;18.90;99.90;;;;;;4904012;29;20028;-84
2023/10/08 05:36:18;;;;;;;25.88;16.23;;;19.00;99.90;;;;;;4903644;29;20521;-84
2023/10/08 05:41:51;;;;;;;35.92;18.05;;;19.20;99.90;;;;;;4901390;29;20044;-85
2023/10/08 05:49:38;;;;;;;31.27;17.27;;;19.40;99.90;;;;;;4933777;29;20092;-83
2023/10/08 06:05:20;;;;;;;31.77;20.98;;;22.20;99.90;;;;;;4933192;29;20029;-83
2023/10/08 06:13:16;;;;;;;44.63;26.38;;;23.20;99.90;;;;;;4919222;29;20060;-83
2023/10/08 06:15:48;;;;;;;43.95;26.30;;;23.50;99.90;;;;;;4901797;29;20115;-83
2023/10/08 06:18:19;;;;;;;38.42;28.15;;;23.60;99.90;;;;;;4912182;29;20036;-83
2023/10/08 06:20:46;;;;;;;47.05;28.73;;;23.90;99.90;;;;;;4917719;29;20474;-84
2023/10/08 06:23:15;;;;;;;50.17;28.23;;;23.70;99.90;;;;;;4933107;29;20044;-83
2023/10/08 06:28:38;;;;;;;42.17;28.20;;;23.70;99.90;;;;;;4919028;29;20035;-82
2023/10/08 06:31:12;;;;;;;44.67;26.83;;;23.50;99.90;;;;;;4901865;29;20031;-82
2023/10/08 06:33:43;;;;;;;40.72;28.30;;;23.50;99.90;;;;;;4918303;29;20052;-82
2023/10/08 06:36:15;;;;;;;38.60;26.73;;;23.60;99.90;;;;;;4917349;29;20033;-82
2023/10/08 06:38:48;;;;;;;38.28;26.80;;;23.80;99.90;;;;;;4901925;29;20032;-81
2023/10/08 06:41:20;;;;;;;34.20;25.90;;;23.80;99.90;;;;;;4917854;29;20032;-81
2023/10/08 06:43:51;;;;;;;38.97;24.98;;;23.80;99.90;;;;;;4901749;29;20454;-83
2023/10/08 06:46:22;;;;;;;26.33;23.38;;;23.60;99.90;;;;;;4902115;29;20028;-82
2023/10/08 06:48:53;;;;;;;24.75;22.23;;;23.20;99.90;;;;;;4932134;29;20060;-81
2023/10/08 06:51:21;;;;;;;23.88;21.30;;;23.20;99.90;;;;;;4930407;29;20024;-81
2023/10/08 06:53:48;;;;;;;23.77;20.23;;;22.80;99.90;;;;;;4933489;29;20091;-82
2023/10/08 06:56:18;;;;;;;23.05;20.63;;;22.80;99.90;;;;;;4917390;29;20036;-84
2023/10/08 06:58:53;;;;;;;22.63;19.90;;;22.70;99.90;;;;;;4921206;29;20478;-83
2023/10/08 07:01:29;;;;;;;22.42;20.00;;;22.90;99.90;;;;;;4901115;29;20036;-82
2023/10/08 07:04:03;;;;;;;24.80;19.73;;;23.10;99.90;;;;;;4917618;29;20055;-83
2023/10/08 07:06:33;;;;;;;23.15;19.35;;;23.00;99.90;;;;;;4917513;29;20042;-81
2023/10/08 07:09:29;;;;;;;23.27;19.30;;;23.10;99.90;;;;;;4897006;29;20032;-82
2023/10/08 07:12:13;;;;;;;23.00;19.83;;;23.10;99.90;;;;;;4901993;29;20032;-82
2023/10/08 07:14:47;;;;;;;21.88;19.67;;;23.30;99.90;;;;;;4902289;29;20055;-83
2023/10/08 07:17:19;;;;;;;21.77;18.92;;;23.20;99.90;;;;;;4902287;29;20150;-84
2023/10/08 07:19:50;;;;;;;20.20;18.05;;;23.10;99.90;;;;;;4907024;29;20080;-87
2023/10/08 07:22:23;;;;;;;24.33;19.38;;;23.10;99.90;;;;;;4912093;29;20036;-87
2023/10/08 07:24:50;;;;;;;22.25;20.20;;;23.70;99.90;;;;;;4907342;29;20032;-87
2023/10/08 07:27:21;;;;;;;23.60;21.08;;;23.90;99.90;;;;;;4902261;29;20056;-89
2023/10/08 07:29:49;;;;;;;22.00;19.90;;;23.90;99.90;;;;;;4902018;29;20028;-88
2023/10/08 07:32:18;;;;;;;22.25;20.25;;;24.10;99.90;;;;;;4902052;29;20031;-87
2023/10/08 07:34:45;;;;;;;22.52;20.45;;;24.30;99.90;;;;;;4901475;29;20646;-88
2023/10/08 07:37:12;;;;;;;24.27;21.45;;;24.50;99.90;;;;;;4917185;29;20075;-87
2023/10/08 07:39:46;;;;;;;22.67;20.52;;;24.50;99.90;;;;;;4917372;29;20039;-88
2023/10/08 07:42:14;;;;;;;21.70;19.58;;;24.30;99.90;;;;;;4901681;29;20055;-88
2023/10/08 07:44:41;;;;;;;22.60;20.33;;;24.20;99.90;;;;;;4917066;29;20076;-87
2023/10/08 07:47:12;;;;;;;21.33;19.40;;;24.50;99.90;;;;;;4901417;29;20112;-88
2023/10/08 07:49:39;;;;;;;22.15;20.20;;;24.30;99.90;;;;;;4901210;29;20068;-88
2023/10/08 07:52:07;;;;;;;21.75;19.75;;;24.30;99.90;;;;;;4917319;29;20712;-88
2023/10/08 07:54:34;;;;;;;24.33;19.73;;;24.10;99.90;;;;;;4901633;29;20054;-89
2023/10/08 07:57:25;;;;;;;20.88;18.55;;;23.90;99.90;;;;;;4917067;29;20024;-88
2023/10/08 08:00:01;;;;;;;19.13;17.48;;;23.80;99.90;;;;;;4933087;29;20028;-88
2023/10/08 08:02:38;;;;;;;19.83;18.00;;;23.60;99.90;;;;;;4931772;29;20056;-88
2023/10/08 08:05:06;;;;;;;22.50;20.42;;;23.50;99.90;;;;;;4932739;29;20028;-87
2023/10/08 08:07:32;;;;;;;21.85;19.95;;;23.80;99.90;;;;;;4932395;29;20028;-88
2023/10/08 08:10:00;;;;;;;22.70;20.38;;;23.90;99.90;;;;;;4900965;29;20032;-88
2023/10/08 08:12:32;;;;;;;22.23;20.23;;;23.80;99.90;;;;;;4916810;29;20062;-88
2023/10/08 08:14:59;;;;;;;22.95;20.95;;;23.80;99.90;;;;;;4919937;29;20032;-88
2023/10/08 08:17:26;;;;;;;22.02;19.60;;;24.00;99.90;;;;;;4901495;29;20060;-88
2023/10/08 08:19:53;;;;;;;19.13;17.50;;;24.10;99.90;;;;;;4920975;29;20059;-89
2023/10/08 08:22:22;;;;;;;21.38;19.45;;;23.60;99.90;;;;;;4912212;29;20044;-88
2023/10/08 08:24:54;;;;;;;21.05;19.42;;;23.60;99.90;;;;;;4886283;29;20028;-89
2023/10/08 08:27:24;;;;;;;22.33;20.30;;;24.10;99.90;;;;;;4886095;29;20092;-89
2023/10/08 08:29:55;;;;;;;19.80;18.10;;;24.30;99.90;;;;;;4916531;29;20060;-90
2023/10/08 08:32:23;;;;;;;19.92;17.88;;;24.50;99.90;;;;;;4885797;29;20039;-88
2023/10/08 08:34:52;;;;;;;20.33;18.63;;;24.30;99.90;;;;;;4885914;29;20076;-88
2023/10/08 08:37:22;;;;;;;21.02;19.20;;;24.00;99.90;;;;;;4892121;29;20554;-88
2023/10/08 08:39:51;;;;;;;23.52;19.38;;;23.80;99.90;;;;;;4920259;29;20036;-89
2023/10/08 08:42:26;;;;;;;20.42;18.55;;;23.80;99.90;;;;;;4920521;29;20036;-90
2023/10/08 08:44:57;;;;;;;21.23;19.17;;;23.90;99.90;;;;;;4920605;29;20032;-88
2023/10/08 08:47:28;;;;;;;21.63;19.38;;;24.00;99.90;;;;;;4920105;29;20091;-89
2023/10/08 08:50:07;;;;;;;20.05;18.10;;;23.80;99.90;;;;;;4920621;29;20028;-87
2023/10/08 08:52:38;;;;;;;21.60;19.70;;;23.70;99.90;;;;;;4920925;29;20042;-88
2023/10/08 08:55:14;;;;;;;24.35;22.25;;;23.90;99.90;;;;;;4920489;29;20040;-88
2023/10/08 08:57:50;;;;;;;24.23;22.30;;;24.10;99.90;;;;;;4919864;29;20039;-88
2023/10/08 09:00:19;;;;;;;24.13;22.23;;;24.20;99.90;;;;;;4919912;29;20040;-88
2023/10/08 09:02:49;;;;;;;21.42;19.73;;;24.10;99.90;;;;;;4911349;29;20036;-89
2023/10/08 09:05:25;;;;;;;22.92;20.83;;;24.30;99.90;;;;;;4886983;29;20032;-89
2023/10/08 09:08:04;;;;;;;22.67;20.88;;;24.70;99.90;;;;;;4885460;29;20036;-89
2023/10/08 09:10:51;;;;;;;23.20;21.20;;;24.90;99.90;;;;;;4885415;29;20479;-88
2023/10/08 09:13:25;;;;;;;22.40;20.23;;;24.90;99.90;;;;;;4885581;29;20278;-88
2023/10/08 09:16:16;;;;;;;23.92;22.17;;;25.10;99.90;;;;;;4885309;29;20119;-89
2023/10/08 09:18:49;;;;;;;22.75;20.85;;;25.10;99.90;;;;;;4904518;29;20032;-89
2023/10/08 09:21:22;;;;;;;22.90;20.87;;;24.90;99.90;;;;;;4919158;29;20056;-87
2023/10/08 09:23:59;;;;;;;22.95;21.05;;;25.30;99.90;;;;;;4919570;29;20047;-87
2023/10/08 09:26:30;;;;;;;24.00;22.10;;;25.30;99.90;;;;;;4919601;29;20036;-85
2023/10/08 09:29:01;;;;;;;23.85;21.98;;;25.50;99.90;;;;;;4919311;29;20059;-87
2023/10/08 09:31:35;;;;;;;23.50;21.80;;;25.40;99.90;;;;;;4919723;29;20056;-87
2023/10/08 09:34:04;;;;;;;24.13;22.00;;;25.10;99.90;;;;;;4919421;29;20130;-87
2023/10/08 09:36:31;;;;;;;23.58;21.52;;;24.80;99.90;;;;;;4919307;29;20087;-87
2023/10/08 09:39:06;;;;;;;23.92;21.67;;;24.90;99.90;;;;;;4919936;29;20036;-87
2023/10/08 09:41:36;;;;;;;26.50;24.48;;;24.80;99.90;;;;;;4910920;29;20383;-86
2023/10/08 09:44:04;;;;;;;23.50;21.40;;;24.70;99.90;;;;;;4884947;29;20067;-87
2023/10/08 09:46:34;;;;;;;24.17;21.63;;;24.70;99.90;;;;;;4885086;29;20052;-87
2023/10/08 09:49:06;;;;;;;24.52;22.30;;;24.60;99.90;;;;;;4884509;29;20506;-87
2023/10/08 09:51:38;;;;;;;26.70;24.50;;;24.50;99.90;;;;;;4884816;29;20044;-86
2023/10/08 09:54:13;;;;;;;26.83;24.73;;;24.70;99.90;;;;;;4884901;29;20216;-87
2023/10/08 09:56:44;;;;;;;23.40;21.42;;;25.00;99.90;;;;;;4884578;29;20037;-87
2023/10/08 09:59:12;;;;;;;27.55;25.17;;;24.90;99.90;;;;;;4884529;29;20088;-87
2023/10/08 10:01:40;;;;;;;25.45;22.15;;;25.00;99.90;;;;;;4885123;29;20502;-87
2023/10/08 10:04:23;;;;;;;25.95;24.08;;;24.70;99.90;;;;;;4884535;29;20053;-87
2023/10/08 10:06:53;;;;;;;23.92;22.08;;;24.80;99.90;;;;;;4885134;29;20032;-87
2023/10/08 10:09:24;;;;;;;24.83;22.63;;;25.00;99.90;;;;;;4918835;29;20064;-87
2023/10/08 10:11:53;;;;;;;25.30;22.83;;;24.90;99.90;;;;;;4920513;29;20028;-87
2023/10/08 10:14:40;;;;;;;24.80;22.70;;;24.70;99.90;;;;;;4921984;29;20028;-86
2023/10/08 10:17:14;;;;;;;25.17;23.15;;;24.70;99.90;;;;;;4923005;29;20050;-87
2023/10/08 10:19:45;;;;;;;25.48;22.98;;;25.00;99.90;;;;;;4919331;29;20051;-88
2023/10/08 10:22:18;;;;;;;25.30;23.10;;;25.00;99.90;;;;;;4918642;29;20044;-88
2023/10/08 10:24:45;;;;;;;28.50;25.83;;;24.90;99.90;;;;;;4918848;29;20031;-88
2023/10/08 10:27:14;;;;;;;27.90;25.45;;;24.90;99.90;;;;;;4920121;29;20371;-87
2023/10/08 10:29:43;;;;;;;25.02;22.95;;;25.10;99.90;;;;;;4918858;29;20117;-86
2023/10/08 10:32:18;;;;;;;25.35;23.25;;;25.10;99.90;;;;;;4906383;29;20025;-87
2023/10/08 10:34:51;;;;;;;26.08;23.80;;;25.30;99.90;;;;;;4884025;29;20054;-87
2023/10/08 10:37:20;;;;;;;26.38;24.10;;;25.20;99.90;;;;;;4898447;29;20095;-87
2023/10/08 10:40:01;;;;;;;25.80;23.52;;;25.20;99.90;;;;;;4884003;29;20033;-88
2023/10/08 10:42:36;;;;;;;25.60;23.35;;;25.30;99.90;;;;;;4883445;29;20064;-88
2023/10/08 10:45:35;;;;;;;26.17;23.88;;;25.40;99.90;;;;;;4883835;29;20040;-86
2023/10/08 10:48:00;;;;;;;26.35;24.20;;;25.40;99.90;;;;;;4905772;29;20032;-86
2023/10/08 10:50:31;;;;;;;26.90;24.25;;;25.20;99.90;;;;;;4902321;29;20036;-86
2023/10/08 10:53:11;;;;;;;27.95;25.65;;;25.30;99.90;;;;;;4902512;29;20064;-86
2023/10/08 10:55:47;;;;;;;25.10;23.33;;;25.20;99.90;;;;;;4918086;29;20131;-87
2023/10/08 10:58:24;;;;;;;26.38;24.20;;;25.30;99.90;;;;;;4924367;29;20056;-88
2023/10/08 11:00:59;;;;;;;26.95;24.40;;;25.30;99.90;;;;;;4917835;29;20039;-87
2023/10/08 11:03:28;;;;;;;26.25;24.08;;;25.30;99.90;;;;;;4917763;29;20036;-88
2023/10/08 11:06:00;;;;;;;26.23;24.00;;;25.50;99.90;;;;;;4917868;29;20024;-88
2023/10/08 11:08:34;;;;;;;26.02;24.02;;;25.40;99.90;;;;;;4917788;29;20032;-88
2023/10/08 11:11:05;;;;;;;26.50;24.30;;;25.40;99.90;;;;;;4917312;29;20090;-87
2023/10/08 11:13:38;;;;;;;26.88;24.40;;;25.40;99.90;;;;;;4917669;29;20486;-86
2023/10/08 11:16:08;;;;;;;26.47;24.43;;;25.30;99.90;;;;;;4900434;29;20052;-88
2023/10/08 11:18:41;;;;;;;27.58;25.00;;;25.30;99.90;;;;;;4883282;29;20041;-87
2023/10/08 11:21:15;;;;;;;28.42;25.85;;;25.30;99.90;;;;;;4885114;29;20245;-88
2023/10/08 11:23:52;;;;;;;27.73;25.45;;;25.10;99.90;;;;;;4904359;29;20442;-88
2023/10/08 11:26:31;;;;;;;28.45;25.90;;;25.30;99.90;;;;;;4883350;29;20036;-88
2023/10/08 11:29:03;;;;;;;27.58;25.40;;;25.10;99.90;;;;;;4883181;29;20127;-87
2023/10/08 11:31:33;;;;;;;28.33;26.05;;;25.30;99.90;;;;;;4884821;29;20035;-87
2023/10/08 11:34:08;;;;;;;27.38;25.23;;;25.40;99.90;;;;;;4917377;29;20080;-88
2023/10/08 11:36:58;;;;;;;26.77;24.80;;;25.60;99.90;;;;;;4917323;29;20035;-88
2023/10/08 11:39:30;;;;;;;27.98;25.75;;;25.30;99.90;;;;;;4917120;29;20131;-88
2023/10/08 11:42:06;;;;;;;28.02;26.00;;;25.30;99.90;;;;;;4915550;29;20032;-88
2023/10/08 11:44:36;;;;;;;27.02;25.00;;;25.30;99.90;;;;;;4894660;29;20059;-88
2023/10/08 11:47:20;;;;;;;27.25;25.08;;;25.30;99.90;;;;;;4917019;29;20025;-87
2023/10/08 11:49:53;;;;;;;27.65;24.75;;;25.30;99.90;;;;;;4914376;29;20056;-87
2023/10/08 11:52:21;;;;;;;28.10;25.98;;;25.00;99.90;;;;;;4899331;29;20041;-87
2023/10/08 11:54:48;;;;;;;27.20;24.65;;;24.90;99.90;;;;;;4917143;29;20453;-89
2023/10/08 11:57:21;;;;;;;28.63;26.10;;;25.00;99.90;;;;;;4917055;29;20486;-87
2023/10/08 11:59:48;;;;;;;27.30;25.23;;;25.10;99.90;;;;;;4901749;29;20044;-87
2023/10/08 12:02:17;;;;;;;27.50;25.23;;;25.10;99.90;;;;;;4916984;29;20375;-87
2023/10/08 12:04:47;;;;;;;26.75;24.20;;;25.10;99.90;;;;;;4898285;29;20417;-88
2023/10/08 12:07:17;;;;;;;27.50;25.10;;;25.10;99.90;;;;;;4882468;29;20558;-87
2023/10/08 12:09:48;;;;;;;27.88;25.52;;;24.90;99.90;;;;;;4882473;29;20036;-87
2023/10/08 12:12:18;;;;;;;27.55;25.15;;;24.90;99.90;;;;;;4882649;29;20029;-87
2023/10/08 12:14:47;;;;;;;27.75;25.52;;;24.90;99.90;;;;;;4898276;29;20069;-86
2023/10/08 12:17:13;;;;;;;27.20;25.00;;;25.10;99.90;;;;;;4882735;29;20145;-87
2023/10/08 12:19:42;;;;;;;27.67;25.52;;;25.20;99.90;;;;;;4882534;29;20036;-88
2023/10/08 12:22:09;;;;;;;27.83;25.38;;;25.30;99.90;;;;;;4882586;29;20084;-87
2023/10/08 12:24:38;;;;;;;27.20;25.08;;;25.30;99.90;;;;;;4882666;29;20059;-87
2023/10/08 12:27:05;;;;;;;27.90;25.88;;;25.50;99.90;;;;;;4897935;29;20024;-88
2023/10/08 12:29:38;;;;;;;27.30;25.25;;;25.30;99.90;;;;;;4916740;29;20036;-90
2023/10/08 12:32:16;;;;;;;27.58;25.33;;;25.50;99.90;;;;;;4916625;29;20779;-87
2023/10/08 12:34:47;;;;;;;27.88;25.45;;;25.50;99.90;;;;;;4917435;29;20048;-87
2023/10/08 12:37:14;;;;;;;27.63;25.30;;;25.50;99.90;;;;;;4902649;29;20035;-87
2023/10/08 12:39:56;;;;;;;27.70;25.50;;;25.50;99.90;;;;;;4916858;29;20028;-87
2023/10/08 12:42:25;;;;;;;27.65;25.67;;;25.30;99.90;;;;;;4917724;29;20127;-87
2023/10/08 12:44:51;;;;;;;28.92;26.27;;;25.10;99.90;;;;;;4916961;29;20394;-88
2023/10/08 12:47:18;;;;;;;27.73;25.73;;;24.80;99.90;;;;;;4916605;29;20127;-88
2023/10/08 12:49:47;;;;;;;27.30;25.20;;;24.80;99.90;;;;;;4916786;29;20020;-88
2023/10/08 12:52:15;;;;;;;27.63;25.25;;;24.80;99.90;;;;;;4932468;29;20103;-88
2023/10/08 12:54:45;;;;;;;27.73;25.38;;;24.80;99.90;;;;;;4933842;29;20048;-89
2023/10/08 12:57:16;;;;;;;27.77;25.60;;;25.00;99.90;;;;;;4902325;29;20028;-87
2023/10/08 12:59:48;;;;;;;26.90;24.90;;;25.10;99.90;;;;;;4920066;29;20040;-88
2023/10/08 13:02:19;;;;;;;27.73;25.58;;;25.20;99.90;;;;;;4921726;29;20040;-88
2023/10/08 13:04:45;;;;;;;27.75;25.35;;;25.00;99.90;;;;;;4918178;29;20036;-87
2023/10/08 13:07:21;;;;;;;28.45;25.88;;;25.00;99.90;;;;;;4899304;29;20035;-88
2023/10/08 13:09:48;;;;;;;28.83;26.23;;;24.90;99.90;;;;;;4919850;29;20064;-89
2023/10/08 13:12:16;;;;;;;28.35;25.80;;;24.90;99.90;;;;;;4919244;29;20056;-87
2023/10/08 13:14:44;;;;;;;28.27;25.73;;;24.90;99.90;;;;;;4919860;29;20032;-88
2023/10/08 13:17:11;;;;;;;29.33;26.80;;;24.90;99.90;;;;;;4919808;29;20136;-87
2023/10/08 13:19:38;;;;;;;29.30;26.52;;;24.90;99.90;;;;;;4920284;29;20043;-87
2023/10/08 13:22:08;;;;;;;28.70;26.15;;;25.00;99.90;;;;;;4915568;29;20024;-87
2023/10/08 13:24:35;;;;;;;27.75;25.73;;;25.10;99.90;;;;;;4886578;29;20055;-87
2023/10/08 13:27:02;;;;;;;28.77;26.10;;;24.90;99.90;;;;;;4885914;29;20036;-87
2023/10/08 13:29:32;;;;;;;28.20;25.73;;;25.00;99.90;;;;;;4886840;29;20043;-86
2023/10/08 13:32:00;;;;;;;27.92;25.58;;;25.00;99.90;;;;;;4887088;29;20033;-88
2023/10/08 13:34:26;;;;;;;27.60;25.55;;;24.90;99.90;;;;;;4891877;29;20044;-88
2023/10/08 13:36:56;;;;;;;27.88;25.60;;;24.90;99.90;;;;;;4920220;29;20036;-87
2023/10/08 13:39:23;;;;;;;28.30;25.70;;;24.90;99.90;;;;;;4919348;29;20035;-87
2023/10/08 13:41:51;;;;;;;27.50;25.42;;;24.90;99.90;;;;;;4919413;29;20028;-88
2023/10/08 13:44:26;;;;;;;27.75;25.50;;;24.90;99.90;;;;;;4919098;29;20043;-89
2023/10/08 13:46:57;;;;;;;28.73;26.00;;;24.90;99.90;;;;;;4919332;29;20036;-87
2023/10/08 13:49:26;;;;;;;28.58;26.30;;;24.70;99.90;;;;;;4910406;29;20517;-86
2023/10/08 13:51:58;;;;;;;27.48;25.13;;;24.60;99.90;;;;;;4884637;29;20033;-85
2023/10/08 13:54:32;;;;;;;27.50;25.08;;;24.70;99.90;;;;;;4884724;29;20154;-87
2023/10/08 13:57:01;;;;;;;27.33;24.90;;;24.70;99.90;;;;;;4884543;29;20037;-87
2023/10/08 13:59:31;;;;;;;26.85;24.40;;;24.80;99.90;;;;;;4884467;29;20029;-87